Search for airport 
image banner adimage banner adimage banner ad
image banner ad

CN14 - Queen Of The Valley Hospital

Located in Napa, United States

ICAO - CN14, IATA -

Data provided by Airmate  

General information

Coordinates: N38°19'26" W122°17'50"
Elevation is 49 feet MSL.
Magnetic variation is 16° East
View others Airports in California

Operational data

Special qualification required
Current time UTC:
Current local time:
Weather at : KAPC - Napa County ( 12 km )
METAR: KAPC 240754Z AUTO 28012KT 10SM CLR 13/11 A2999 RMK AO2 SLP146 T01330111 402500133
TAF: KAPC 240533Z 2406/2506 24010KT P6SM SKC FM240900 23006KT P6SM BKN015 FM241100 27008KT P6SM OVC012 FM241530 26011KT P6SM FEW015 FM242100 20015KT P6SM SKC
View NOTAMs / SUP AIP / TFR affecting this airport [VIEW]
Communications frequencies: [VIEW]

Runways:

Airport contact information

Address: Napa United States

Satellite view of CN14